< < Back
Terminal Aerodrome Forecast


Current Version              Previous Versions:   1  2  3  4  5  6  7  8  9  

Terminal Aerodrome Forecast

557
FTUS44 KOHX 281700 RRA
TAFCSV
TAF
KCSV 281743Z 2818/2918 VRB04KT P6SM SCT035
     FM290600 00000KT 3SM BR SCT050
      TEMPO 2911/2913 2SM BR FEW050
     FM291400 19005KT P6SM SCT250=



Latest METAR

398
SAUS70 KWBC 290300 RRE
MTRCSV
METAR KCSV 290253Z AUTO 00000KT 6SM BR CLR 22/20 A3010 RMK AO2 SLP170
T02220200 50004


USA.gov is the U.S. government's official web portal to all federal, state and local government web resources and services.